createdAt,value
2018-07-13T00:00:32.540Z,15.16
2018-07-13T00:03:01.951Z,15.08
2018-07-13T00:05:31.315Z,14.99
2018-07-13T00:08:00.766Z,14.92
2018-07-13T00:10:30.074Z,14.83
2018-07-13T00:12:59.514Z,14.75
2018-07-13T00:15:29.048Z,14.68
2018-07-13T00:17:58.470Z,14.62
2018-07-13T00:20:27.898Z,14.55
2018-07-13T00:22:57.209Z,14.47
2018-07-13T00:25:26.688Z,14.40
2018-07-13T00:27:55.946Z,14.33
2018-07-13T00:30:25.493Z,14.29
2018-07-13T00:32:54.861Z,14.25
2018-07-13T00:35:24.354Z,14.20
2018-07-13T00:37:54.015Z,14.17
2018-07-13T00:40:23.534Z,14.11
2018-07-13T00:42:52.925Z,14.09
2018-07-13T00:45:22.207Z,14.03
2018-07-13T00:47:51.659Z,13.98
2018-07-13T00:50:21.390Z,13.93
2018-07-13T00:52:50.901Z,13.88
2018-07-13T00:55:21.369Z,13.79
2018-07-13T00:57:50.932Z,13.66
2018-07-13T01:00:31.589Z,13.54
2018-07-13T01:03:02.654Z,13.43
2018-07-13T01:05:32.614Z,13.33
2018-07-13T01:08:01.897Z,13.24
2018-07-13T01:10:31.338Z,13.17
2018-07-13T01:13:00.886Z,13.13
2018-07-13T01:15:30.187Z,13.08
2018-07-13T01:17:59.454Z,13.04
2018-07-13T01:20:28.887Z,13.01
2018-07-13T01:22:58.281Z,13.03
2018-07-13T01:25:27.860Z,13.02
2018-07-13T01:27:57.251Z,13.02
2018-07-13T01:30:26.559Z,13.01
2018-07-13T01:32:55.991Z,12.99
2018-07-13T01:35:25.522Z,12.98
2018-07-13T01:37:55.668Z,12.98
2018-07-13T01:40:25.179Z,13.02
2018-07-13T01:42:54.613Z,13.05
2018-07-13T01:45:25.244Z,13.10
2018-07-13T01:47:54.725Z,13.14
2018-07-13T01:50:24.340Z,13.14
2018-07-13T01:52:54.085Z,13.15
2018-07-13T01:55:23.399Z,13.13
2018-07-13T01:57:52.876Z,13.14
2018-07-13T02:00:22.269Z,13.13
2018-07-13T02:02:51.732Z,13.10
2018-07-13T02:05:21.210Z,13.08
2018-07-13T02:07:50.665Z,13.01
2018-07-13T02:10:20.094Z,12.94
2018-07-13T02:12:49.625Z,12.92
2018-07-13T02:15:19.237Z,12.86
2018-07-13T02:17:48.902Z,12.80
2018-07-13T02:20:18.448Z,12.74
2018-07-13T02:22:47.898Z,12.68
2018-07-13T02:25:17.319Z,12.62
2018-07-13T02:27:46.772Z,12.60
2018-07-13T02:30:16.252Z,12.55
2018-07-13T02:32:45.733Z,12.49
2018-07-13T02:35:15.137Z,12.44
2018-07-13T02:37:44.576Z,12.40
2018-07-13T02:40:14.117Z,12.39
2018-07-13T02:42:43.657Z,12.33
2018-07-13T02:45:13.269Z,12.26
2018-07-13T02:47:42.742Z,12.22
2018-07-13T02:50:12.170Z,12.20
2018-07-13T02:52:41.570Z,12.18
2018-07-13T02:55:11.033Z,12.14
2018-07-13T02:57:40.461Z,12.13
2018-07-13T03:00:09.876Z,12.10
2018-07-13T03:02:39.305Z,12.06
2018-07-13T03:05:09.141Z,12.01
2018-07-13T03:07:38.654Z,11.94
2018-07-13T03:10:08.135Z,11.93
2018-07-13T03:12:37.719Z,11.97
2018-07-13T03:15:07.388Z,12.06
2018-07-13T03:17:37.005Z,12.08
2018-07-13T03:20:06.574Z,12.14
2018-07-13T03:22:36.201Z,12.26
2018-07-13T03:25:05.822Z,12.36
2018-07-13T03:27:35.141Z,12.43
2018-07-13T03:30:04.605Z,12.48
2018-07-13T03:32:34.023Z,12.57
2018-07-13T03:35:03.756Z,12.61
2018-07-13T03:37:33.079Z,12.66
2018-07-13T03:40:02.778Z,12.71
2018-07-13T03:42:32.247Z,12.77
2018-07-13T03:45:01.676Z,12.86
2018-07-13T03:47:31.318Z,12.92
2018-07-13T03:50:00.793Z,12.98
2018-07-13T03:52:30.408Z,13.03
2018-07-13T03:54:59.933Z,13.08
2018-07-13T03:57:29.421Z,13.11
2018-07-13T03:59:58.912Z,13.18
2018-07-13T04:02:28.359Z,13.21
2018-07-13T04:04:57.735Z,13.20
2018-07-13T04:07:27.367Z,13.23
2018-07-13T04:09:57.264Z,13.23
2018-07-13T04:12:26.857Z,13.26
2018-07-13T04:14:56.288Z,13.27
2018-07-13T04:17:26.329Z,13.27
2018-07-13T04:19:55.727Z,13.25
2018-07-13T04:22:25.419Z,13.30
2018-07-13T04:24:55.176Z,13.25
2018-07-13T04:27:25.224Z,13.26
2018-07-13T04:29:56.342Z,13.29
2018-07-13T04:32:25.822Z,13.29
2018-07-13T04:34:55.437Z,13.21
2018-07-13T04:37:25.917Z,13.22
2018-07-13T04:39:55.352Z,13.18
2018-07-13T04:42:24.748Z,13.15
2018-07-13T04:44:54.189Z,13.14
2018-07-13T04:47:24.540Z,13.09
2018-07-13T04:49:54.239Z,13.06
2018-07-13T04:52:23.898Z,13.10
2018-07-13T04:54:53.501Z,13.13
2018-07-13T04:57:23.080Z,13.17
2018-07-13T04:59:52.833Z,13.09
2018-07-13T05:02:22.334Z,13.07
2018-07-13T05:04:52.007Z,13.08
2018-07-13T05:07:22.736Z,13.08
2018-07-13T05:09:52.254Z,13.08
2018-07-13T05:12:22.107Z,13.09
2018-07-13T05:14:51.979Z,13.12
2018-07-13T05:17:21.672Z,13.11
2018-07-13T05:19:51.221Z,13.12
2018-07-13T05:22:20.909Z,13.22
2018-07-13T05:24:51.516Z,13.38
2018-07-13T05:27:20.935Z,13.48
2018-07-13T05:29:50.703Z,13.60
2018-07-13T05:32:20.457Z,13.65
2018-07-13T05:34:50.165Z,13.67
2018-07-13T05:37:19.808Z,13.70
2018-07-13T05:39:50.547Z,13.75
2018-07-13T05:42:20.064Z,13.84
2018-07-13T05:44:49.877Z,13.84
2018-07-13T05:47:19.589Z,13.95
2018-07-13T05:49:49.218Z,14.00
2018-07-13T05:52:18.760Z,14.16
2018-07-13T05:54:48.532Z,14.25
2018-07-13T05:57:18.032Z,14.32
2018-07-13T05:59:47.744Z,14.37
2018-07-13T06:02:17.217Z,14.46
2018-07-13T06:05:18.320Z,14.49
2018-07-13T06:07:47.821Z,14.64
2018-07-13T06:10:17.536Z,14.82
2018-07-13T06:12:47.246Z,14.89
2018-07-13T06:15:16.742Z,15.11
2018-07-13T06:17:46.552Z,15.18
2018-07-13T06:20:16.207Z,15.26
2018-07-13T06:22:45.756Z,15.39
2018-07-13T06:25:15.177Z,15.50
2018-07-13T06:27:44.615Z,15.74
2018-07-13T06:30:14.319Z,16.00
2018-07-13T06:32:43.649Z,16.13
2018-07-13T06:35:13.327Z,16.22
2018-07-13T06:37:42.941Z,16.43
2018-07-13T06:40:12.642Z,16.57
2018-07-13T06:42:42.133Z,16.57
2018-07-13T06:45:12.047Z,16.68
2018-07-13T06:47:41.602Z,16.81
2018-07-13T06:50:11.112Z,16.89
2018-07-13T06:52:40.791Z,17.11
2018-07-13T06:55:10.919Z,17.22
2018-07-13T06:57:51.175Z,17.29
2018-07-13T07:01:10.833Z,17.29
2018-07-13T07:04:49.912Z,17.46
2018-07-13T07:07:25.453Z,17.65
2018-07-13T07:09:58.153Z,17.68
2018-07-13T07:13:06.481Z,17.78
2018-07-13T07:15:36.211Z,17.97
2018-07-13T07:18:05.820Z,18.19
2018-07-13T07:20:35.283Z,18.38
2018-07-13T07:23:04.806Z,18.47
2018-07-13T07:25:34.560Z,18.53
2018-07-13T07:28:04.093Z,18.52
2018-07-13T07:30:34.056Z,18.52
2018-07-13T07:33:04.291Z,18.63
2018-07-13T07:35:35.252Z,18.73
2018-07-13T07:38:05.165Z,18.84
2018-07-13T07:40:35.170Z,18.91
2018-07-13T07:43:05.410Z,18.86
2018-07-13T07:45:35.161Z,18.88
2018-07-13T07:48:04.988Z,18.99
2018-07-13T07:50:37.506Z,19.10
2018-07-13T07:53:07.072Z,19.17
2018-07-13T07:55:37.214Z,19.26
2018-07-13T07:58:07.433Z,19.36
2018-07-13T08:00:37.392Z,19.35
2018-07-13T08:03:07.452Z,19.40
2018-07-13T08:05:37.563Z,19.52
2018-07-13T08:08:07.473Z,19.70
2018-07-13T08:10:38.372Z,19.86
2018-07-13T08:13:12.135Z,20.05
2018-07-13T08:15:42.973Z,20.17
2018-07-13T08:18:12.662Z,20.37
2018-07-13T08:20:47.621Z,20.43
2018-07-13T08:23:17.922Z,20.54
2018-07-13T08:25:50.591Z,20.77
2018-07-13T08:28:20.441Z,20.78
2018-07-13T08:30:54.660Z,20.81
2018-07-13T08:33:24.315Z,20.90
2018-07-13T08:35:54.184Z,20.80
2018-07-13T08:38:23.911Z,20.87
2018-07-13T08:40:53.780Z,20.93
2018-07-13T08:43:23.480Z,20.99
2018-07-13T08:45:53.334Z,20.97
2018-07-13T08:48:22.950Z,20.83
2018-07-13T08:50:52.913Z,20.76
2018-07-13T08:53:23.064Z,20.71
2018-07-13T08:55:54.110Z,20.70
2018-07-13T08:58:24.321Z,20.79
2018-07-13T09:00:54.391Z,20.83
2018-07-13T09:03:24.431Z,20.94
2018-07-13T09:05:54.209Z,20.97
2018-07-13T09:08:24.082Z,21.29
2018-07-13T09:10:53.839Z,21.48
2018-07-13T09:13:23.682Z,21.68
2018-07-13T09:15:53.591Z,21.72
2018-07-13T09:18:23.416Z,21.67
2018-07-13T09:20:53.040Z,21.81
2018-07-13T09:23:23.134Z,21.88
2018-07-13T09:25:53.022Z,21.97
2018-07-13T09:28:22.851Z,22.11
2018-07-13T09:30:52.751Z,22.05
2018-07-13T09:33:22.631Z,21.94
2018-07-13T09:35:52.553Z,21.79
2018-07-13T09:38:22.945Z,21.79
2018-07-13T09:40:53.350Z,21.76
2018-07-13T09:43:23.212Z,21.57
2018-07-13T09:45:54.023Z,21.35
2018-07-13T09:48:23.772Z,21.29
2018-07-13T09:50:53.471Z,21.23
2018-07-13T09:53:23.491Z,21.27
2018-07-13T09:55:53.031Z,21.35
2018-07-13T09:58:31.802Z,21.56
2018-07-13T10:01:06.691Z,21.67
2018-07-13T10:03:39.177Z,21.68
2018-07-13T10:06:09.186Z,21.79
2018-07-13T10:08:39.032Z,21.90
2018-07-13T10:11:08.660Z,21.86
2018-07-13T10:13:38.371Z,21.83
2018-07-13T10:16:08.219Z,21.79
2018-07-13T10:18:38.069Z,21.75
2018-07-13T10:21:08.815Z,21.71
2018-07-13T10:23:39.511Z,21.86
2018-07-13T10:26:13.790Z,21.99
2018-07-13T10:28:43.731Z,21.87
2018-07-13T10:31:14.771Z,21.89
2018-07-13T10:33:44.859Z,22.08
2018-07-13T10:36:18.461Z,22.36
2018-07-13T10:38:48.295Z,22.74
2018-07-13T10:41:18.052Z,23.07
2018-07-13T10:43:47.892Z,23.26
2018-07-13T10:46:17.363Z,23.37
2018-07-13T10:48:46.903Z,23.19
2018-07-13T10:51:16.549Z,23.01
2018-07-13T10:53:46.456Z,22.78
2018-07-13T10:56:16.152Z,22.57
2018-07-13T10:58:46.057Z,22.54
2018-07-13T11:01:16.003Z,22.88
2018-07-13T11:03:45.984Z,23.21
2018-07-13T11:06:15.872Z,23.59
2018-07-13T11:08:45.714Z,23.96
2018-07-13T11:11:15.484Z,24.11
2018-07-13T11:13:45.376Z,24.08
2018-07-13T11:16:15.248Z,23.97
2018-07-13T11:18:45.933Z,23.82
2018-07-13T11:21:15.784Z,23.58
2018-07-13T11:23:45.590Z,23.37
2018-07-13T11:26:15.623Z,22.84
2018-07-13T11:28:45.493Z,22.82
2018-07-13T11:31:15.534Z,23.69
2018-07-13T11:33:45.323Z,23.97
2018-07-13T11:36:15.251Z,24.09
2018-07-13T11:38:45.189Z,23.83
2018-07-13T11:41:14.960Z,23.64
2018-07-13T11:43:44.736Z,23.48
2018-07-13T11:46:14.621Z,23.22
2018-07-13T11:48:44.153Z,23.02
2018-07-13T11:51:14.255Z,22.55
2018-07-13T11:53:44.059Z,22.06
2018-07-13T11:56:14.043Z,21.86
2018-07-13T11:58:43.932Z,21.82
2018-07-13T12:01:13.752Z,22.06
2018-07-13T12:03:43.612Z,22.26
2018-07-13T12:06:13.622Z,22.25
2018-07-13T12:08:43.235Z,22.18
2018-07-13T12:11:12.983Z,22.07
2018-07-13T12:13:43.543Z,22.02
2018-07-13T12:16:13.142Z,21.83
2018-07-13T12:18:42.953Z,21.62
2018-07-13T12:21:12.923Z,21.42
2018-07-13T12:23:42.714Z,21.33
2018-07-13T12:26:12.872Z,21.21
2018-07-13T12:28:42.573Z,21.11
2018-07-13T12:31:12.452Z,20.96
2018-07-13T12:33:42.113Z,20.78
2018-07-13T12:36:13.101Z,20.61
2018-07-13T12:38:43.051Z,20.45
2018-07-13T12:41:12.742Z,20.32
2018-07-13T12:43:42.331Z,20.19
2018-07-13T12:46:11.931Z,20.00
2018-07-13T12:48:41.793Z,19.87
2018-07-13T12:51:11.493Z,20.21
2018-07-13T12:53:42.431Z,20.45
2018-07-13T12:56:12.363Z,21.36
2018-07-13T12:58:42.881Z,22.36
2018-07-13T13:01:12.923Z,23.22
2018-07-13T13:03:42.715Z,23.95
2018-07-13T13:06:12.453Z,24.80
2018-07-13T13:08:42.280Z,25.54
2018-07-13T13:11:12.292Z,26.32
2018-07-13T13:13:42.094Z,26.33
2018-07-13T13:16:12.062Z,25.97
2018-07-13T13:18:41.633Z,25.27
2018-07-13T13:21:11.461Z,24.52
2018-07-13T13:23:41.474Z,24.05
2018-07-13T13:26:11.609Z,23.65
2018-07-13T13:28:41.572Z,22.99
2018-07-13T13:31:11.482Z,22.31
2018-07-13T13:33:41.522Z,21.55
2018-07-13T13:36:11.311Z,21.05
2018-07-13T13:38:41.171Z,20.94
2018-07-13T13:41:10.942Z,21.39
2018-07-13T13:43:40.551Z,22.32
2018-07-13T13:46:10.171Z,23.18
2018-07-13T13:48:40.003Z,23.96
2018-07-13T13:51:10.800Z,24.65
2018-07-13T13:53:40.907Z,25.31
2018-07-13T13:56:10.810Z,25.86
2018-07-13T13:58:40.910Z,26.10
2018-07-13T14:01:10.610Z,25.83
2018-07-13T14:03:40.432Z,25.77
2018-07-13T14:06:10.133Z,25.66
2018-07-13T14:08:39.792Z,25.60
2018-07-13T14:11:09.690Z,25.53
2018-07-13T14:13:39.425Z,25.46
2018-07-13T14:16:09.360Z,25.63
2018-07-13T14:18:39.097Z,25.54
2018-07-13T14:21:11.861Z,25.43
2018-07-13T14:23:42.197Z,25.86
2018-07-13T14:26:11.990Z,25.98
2018-07-13T14:28:41.920Z,26.65
2018-07-13T14:31:11.801Z,26.60
2018-07-13T14:33:41.509Z,26.32
2018-07-13T14:36:11.360Z,26.05
2018-07-13T14:38:40.880Z,25.78
2018-07-13T14:41:10.622Z,25.57
2018-07-13T14:43:40.250Z,25.25
2018-07-13T14:46:10.151Z,24.90
2018-07-13T14:48:39.813Z,24.54
2018-07-13T14:51:09.961Z,23.19
2018-07-13T14:53:39.624Z,19.28
2018-07-13T14:56:09.450Z,17.79
2018-07-13T14:58:39.298Z,16.99
2018-07-13T15:01:08.879Z,16.55
2018-07-13T15:03:38.429Z,16.37
2018-07-13T15:06:08.397Z,16.42
2018-07-13T15:08:37.888Z,16.53
2018-07-13T15:11:07.669Z,16.71
2018-07-13T15:13:37.539Z,17.38
2018-07-13T15:16:07.418Z,17.62
2018-07-13T15:18:37.289Z,18.46
2018-07-13T15:21:07.160Z,19.79
2018-07-13T15:23:37.908Z,21.04
2018-07-13T15:26:07.516Z,21.89
2018-07-13T15:28:38.173Z,21.49
2018-07-13T15:31:07.433Z,21.18
2018-07-13T15:33:37.040Z,20.82
2018-07-13T15:36:06.892Z,20.48
2018-07-13T15:38:36.324Z,20.21
2018-07-13T15:41:06.105Z,20.00
2018-07-13T15:43:35.585Z,19.86
2018-07-13T15:46:04.984Z,19.73
2018-07-13T15:48:34.366Z,19.72
2018-07-13T15:51:03.955Z,19.86
2018-07-13T15:53:33.364Z,20.85
2018-07-13T15:56:03.057Z,20.88
2018-07-13T15:58:32.438Z,21.96
2018-07-13T16:01:01.845Z,23.15
2018-07-13T16:03:31.341Z,23.88
2018-07-13T16:06:01.000Z,23.81
2018-07-13T16:08:30.554Z,23.37
2018-07-13T16:11:00.145Z,22.77
2018-07-13T16:13:29.991Z,22.34
2018-07-13T16:15:59.613Z,22.01
2018-07-13T16:18:29.274Z,21.59
2018-07-13T16:20:58.904Z,21.33
2018-07-13T16:23:28.430Z,21.07
2018-07-13T16:25:59.129Z,20.89
2018-07-13T16:28:28.653Z,20.71
2018-07-13T16:30:58.234Z,20.46
2018-07-13T16:33:27.700Z,20.30
2018-07-13T16:35:57.142Z,20.17
2018-07-13T16:38:26.602Z,20.10
2018-07-13T16:40:56.124Z,20.03
2018-07-13T16:43:25.631Z,19.97
2018-07-13T16:45:55.312Z,19.91
2018-07-13T16:48:24.794Z,19.81
2018-07-13T16:50:54.436Z,19.72
2018-07-13T16:53:24.030Z,19.64
2018-07-13T16:55:53.479Z,19.61
2018-07-13T16:58:22.921Z,19.60
2018-07-13T17:00:52.321Z,19.64
2018-07-13T17:03:22.911Z,19.69
2018-07-13T17:05:52.235Z,19.69
2018-07-13T17:08:21.763Z,19.68
2018-07-13T17:10:51.205Z,19.65
2018-07-13T17:13:20.834Z,19.58
2018-07-13T17:15:50.252Z,19.49
2018-07-13T17:18:19.729Z,19.43
2018-07-13T17:20:49.344Z,19.35
2018-07-13T17:23:18.799Z,19.25
2018-07-13T17:25:48.301Z,19.12
2018-07-13T17:28:17.868Z,18.97
2018-07-13T17:30:47.482Z,18.86
2018-07-13T17:33:17.044Z,18.75
2018-07-13T17:35:46.721Z,18.66
2018-07-13T17:38:16.215Z,18.63
2018-07-13T17:40:45.691Z,18.62
2018-07-13T17:43:15.089Z,18.63
2018-07-13T17:45:44.516Z,18.72
2018-07-13T17:48:13.995Z,18.74
2018-07-13T17:50:44.544Z,18.75
2018-07-13T17:53:13.941Z,18.75
2018-07-13T17:55:43.599Z,18.72
2018-07-13T17:58:12.896Z,18.66
2018-07-13T18:00:42.364Z,18.62
2018-07-13T18:03:11.783Z,18.55
2018-07-13T18:05:41.437Z,18.47
2018-07-13T18:08:10.931Z,18.41
2018-07-13T18:10:40.412Z,18.36
2018-07-13T18:13:10.105Z,18.27
2018-07-13T18:15:39.866Z,18.18
2018-07-13T18:18:09.367Z,18.08
2018-07-13T18:20:38.956Z,18.01
2018-07-13T18:23:08.579Z,17.93
2018-07-13T18:25:38.086Z,17.89
2018-07-13T18:28:07.736Z,17.87
2018-07-13T18:30:37.526Z,17.84
2018-07-13T18:33:08.063Z,17.78
2018-07-13T18:35:37.620Z,17.75
2018-07-13T18:38:07.052Z,17.73
2018-07-13T18:40:36.711Z,17.72
2018-07-13T18:43:06.195Z,17.69
2018-07-13T18:45:35.865Z,17.62
2018-07-13T18:48:05.423Z,17.54
2018-07-13T18:50:35.039Z,17.47
2018-07-13T18:53:04.556Z,17.39
2018-07-13T18:55:34.148Z,17.32
2018-07-13T18:58:03.839Z,17.28
2018-07-13T19:00:33.289Z,17.28
2018-07-13T19:03:02.879Z,17.24
2018-07-13T19:05:32.339Z,17.23
2018-07-13T19:08:01.801Z,17.19
2018-07-13T19:10:31.435Z,17.16
2018-07-13T19:13:00.865Z,17.08
2018-07-13T19:15:30.400Z,17.01
2018-07-13T19:17:59.966Z,16.95
2018-07-13T19:20:29.467Z,16.95
2018-07-13T19:22:58.806Z,16.94
2018-07-13T19:25:29.370Z,16.94
2018-07-13T19:27:59.960Z,16.96
2018-07-13T19:30:29.291Z,16.96
2018-07-13T19:32:58.762Z,16.95
2018-07-13T19:35:28.226Z,16.98
2018-07-13T19:37:57.748Z,16.98
2018-07-13T19:40:27.161Z,16.97
2018-07-13T19:42:56.763Z,16.98
2018-07-13T19:45:26.387Z,16.98
2018-07-13T19:47:55.995Z,16.97
2018-07-13T19:50:25.526Z,16.95
2018-07-13T19:52:55.021Z,16.93
2018-07-13T19:55:27.497Z,16.92
2018-07-13T19:57:56.969Z,16.89
2018-07-13T20:00:26.401Z,16.87
2018-07-13T20:02:55.801Z,16.85
2018-07-13T20:05:25.341Z,16.84
2018-07-13T20:07:54.852Z,16.84
2018-07-13T20:10:24.405Z,16.83
2018-07-13T20:12:54.138Z,16.84
2018-07-13T20:15:23.635Z,16.88
2018-07-13T20:17:53.156Z,16.90
2018-07-13T20:20:22.669Z,16.93
2018-07-13T20:22:52.148Z,16.96
2018-07-13T20:25:22.599Z,16.96
2018-07-13T20:27:52.087Z,16.97
2018-07-13T20:30:21.607Z,16.98
2018-07-13T20:32:51.330Z,17.00
2018-07-13T20:35:20.787Z,17.01
2018-07-13T20:37:50.274Z,17.05
2018-07-13T20:40:20.727Z,17.07
2018-07-13T20:42:50.245Z,17.12
2018-07-13T20:45:19.826Z,17.18
2018-07-13T20:47:49.190Z,17.21
2018-07-13T20:50:18.848Z,17.29
2018-07-13T20:52:48.352Z,17.33
2018-07-13T20:55:17.977Z,17.40
2018-07-13T20:57:48.583Z,17.44
2018-07-13T21:00:18.253Z,17.45
2018-07-13T21:02:47.760Z,17.48
2018-07-13T21:05:17.182Z,17.50
2018-07-13T21:07:46.628Z,17.43
2018-07-13T21:10:16.306Z,17.30
2018-07-13T21:12:45.765Z,17.20
2018-07-13T21:15:15.393Z,17.12
2018-07-13T21:17:44.837Z,17.10
2018-07-13T21:20:14.431Z,17.06
2018-07-13T21:22:44.009Z,17.07
2018-07-13T21:25:13.600Z,17.13
2018-07-13T21:27:43.170Z,17.21
2018-07-13T21:30:12.688Z,17.26
2018-07-13T21:32:42.168Z,17.31
2018-07-13T21:35:11.541Z,17.33
2018-07-13T21:37:41.735Z,17.33
2018-07-13T21:40:11.247Z,17.35
2018-07-13T21:42:41.730Z,17.35
2018-07-13T21:45:11.489Z,17.35
2018-07-13T21:47:40.799Z,17.34
2018-07-13T21:50:10.352Z,17.32
2018-07-13T21:52:39.749Z,17.32
2018-07-13T21:55:09.176Z,17.32
2018-07-13T21:57:38.692Z,17.32
2018-07-13T22:00:08.500Z,17.31
2018-07-13T22:02:37.913Z,17.31
2018-07-13T22:05:07.378Z,17.30
2018-07-13T22:07:36.866Z,17.28
2018-07-13T22:10:06.474Z,17.27
2018-07-13T22:12:36.226Z,17.25
2018-07-13T22:15:05.938Z,17.23
2018-07-13T22:17:35.429Z,17.21
2018-07-13T22:20:05.089Z,17.19
2018-07-13T22:22:34.602Z,17.16
2018-07-13T22:25:03.998Z,17.15
2018-07-13T22:27:33.564Z,17.10
2018-07-13T22:30:03.373Z,17.09
2018-07-13T22:32:32.793Z,17.08
2018-07-13T22:35:02.340Z,17.07
2018-07-13T22:37:31.814Z,17.04
2018-07-13T22:40:01.166Z,17.05
2018-07-13T22:42:30.537Z,17.06
2018-07-13T22:44:59.977Z,17.04
2018-07-13T22:47:29.506Z,17.04
2018-07-13T22:49:58.847Z,17.04
2018-07-13T22:52:28.460Z,17.05
2018-07-13T22:54:57.929Z,17.04
2018-07-13T22:57:27.312Z,17.02
2018-07-13T22:59:57.054Z,17.01
2018-07-13T23:02:26.371Z,17.01
2018-07-13T23:04:55.895Z,17.01
2018-07-13T23:07:26.463Z,17.01
2018-07-13T23:09:55.935Z,17.01
2018-07-13T23:12:25.393Z,17.03
2018-07-13T23:14:54.828Z,17.03
2018-07-13T23:17:25.135Z,17.03
2018-07-13T23:19:55.691Z,17.03
2018-07-13T23:22:25.140Z,17.02
2018-07-13T23:24:54.634Z,17.02
2018-07-13T23:27:24.193Z,17.01
2018-07-13T23:29:53.630Z,17.00
2018-07-13T23:32:22.944Z,17.00
2018-07-13T23:34:52.514Z,16.99
2018-07-13T23:37:21.951Z,16.99
2018-07-13T23:39:51.487Z,16.98
2018-07-13T23:42:20.875Z,16.94
2018-07-13T23:44:50.265Z,16.91
2018-07-13T23:47:19.827Z,16.88
2018-07-13T23:49:49.217Z,16.86
2018-07-13T23:52:18.794Z,16.81
2018-07-13T23:54:48.317Z,16.78
2018-07-13T23:57:17.849Z,16.75
2018-07-13T23:59:47.383Z,16.72
